sensor_id;sensor_type;location;lat;lon;timestamp;pressure;altitude;pressure_sealevel;temperature;humidity
29461;BME280;16428;47.836;35.106;2023-02-28T00:01:30;101839.44;;;4.41;100.00
29461;BME280;16428;47.836;35.106;2023-02-28T00:03:59;101856.22;;;4.54;100.00
29461;BME280;16428;47.836;35.106;2023-02-28T00:06:26;101856.22;;;4.54;100.00
29461;BME280;16428;47.836;35.106;2023-02-28T00:08:54;101855.38;;;4.53;100.00
29461;BME280;16428;47.836;35.106;2023-02-28T00:11:28;101861.09;;;4.60;100.00
29461;BME280;16428;47.836;35.106;2023-02-28T00:13:57;101867.75;;;4.29;100.00
29461;BME280;16428;47.836;35.106;2023-02-28T00:16:25;101855.84;;;4.35;100.00
29461;BME280;16428;47.836;35.106;2023-02-28T00:18:52;101882.63;;;4.32;100.00
29461;BME280;16428;47.836;35.106;2023-02-28T00:21:20;101888.06;;;4.30;100.00
29461;BME280;16428;47.836;35.106;2023-02-28T00:23:48;101895.22;;;4.17;100.00
29461;BME280;16428;47.836;35.106;2023-02-28T00:26:16;101897.34;;;4.37;100.00
29461;BME280;16428;47.836;35.106;2023-02-28T00:28:47;101900.09;;;4.36;100.00
29461;BME280;16428;47.836;35.106;2023-02-28T00:31:15;101903.91;;;4.32;100.00
29461;BME280;16428;47.836;35.106;2023-02-28T00:33:42;101905.72;;;4.44;100.00
29461;BME280;16428;47.836;35.106;2023-02-28T00:36:11;101908.69;;;4.52;100.00
29461;BME280;16428;47.836;35.106;2023-02-28T00:38:40;101903.06;;;4.44;100.00
29461;BME280;16428;47.836;35.106;2023-02-28T00:41:08;101902.22;;;4.31;100.00
29461;BME280;16428;47.836;35.106;2023-02-28T00:43:38;101915.84;;;4.39;100.00
29461;BME280;16428;47.836;35.106;2023-02-28T00:46:06;101920.97;;;4.42;100.00
29461;BME280;16428;47.836;35.106;2023-02-28T00:48:34;101920.50;;;4.48;100.00
29461;BME280;16428;47.836;35.106;2023-02-28T00:51:02;101915.84;;;4.39;100.00
29461;BME280;16428;47.836;35.106;2023-02-28T00:53:33;101913.38;;;4.48;100.00
29461;BME280;16428;47.836;35.106;2023-02-28T00:56:02;101913.28;;;4.37;100.00
29461;BME280;16428;47.836;35.106;2023-02-28T00:58:34;101898.59;;;4.57;100.00
29461;BME280;16428;47.836;35.106;2023-02-28T01:01:02;101906.31;;;4.60;100.00
29461;BME280;16428;47.836;35.106;2023-02-28T01:03:30;101913.59;;;4.58;100.00
29461;BME280;16428;47.836;35.106;2023-02-28T01:05:57;101908.03;;;4.61;100.00
29461;BME280;16428;47.836;35.106;2023-02-28T01:08:25;101905.09;;;4.53;100.00
29461;BME280;16428;47.836;35.106;2023-02-28T01:10:57;101918.50;;;4.51;100.00
29461;BME280;16428;47.836;35.106;2023-02-28T01:13:24;101924.78;;;4.50;100.00
29461;BME280;16428;47.836;35.106;2023-02-28T01:15:55;101920.50;;;4.48;100.00
29461;BME280;16428;47.836;35.106;2023-02-28T01:18:24;101916.88;;;4.49;100.00
29461;BME280;16428;47.836;35.106;2023-02-28T01:20:52;101916.72;;;4.27;100.00
29461;BME280;16428;47.836;35.106;2023-02-28T01:23:21;101917.44;;;4.29;100.00
29461;BME280;16428;47.836;35.106;2023-02-28T01:25:52;101912.66;;;4.34;100.00
29461;BME280;16428;47.836;35.106;2023-02-28T01:28:19;101912.66;;;4.34;100.00
29461;BME280;16428;47.836;35.106;2023-02-28T01:30:49;101914.25;;;4.23;100.00
29461;BME280;16428;47.836;35.106;2023-02-28T01:33:18;101914.47;;;4.20;100.00
29461;BME280;16428;47.836;35.106;2023-02-28T01:35:45;101918.19;;;4.31;100.00
29461;BME280;16428;47.836;35.106;2023-02-28T01:38:13;101914.16;;;4.12;100.00
29461;BME280;16428;47.836;35.106;2023-02-28T01:40:48;101910.31;;;4.16;100.00
29461;BME280;16428;47.836;35.106;2023-02-28T01:43:22;101917.97;;;4.08;100.00
29461;BME280;16428;47.836;35.106;2023-02-28T01:45:51;101923.31;;;4.21;100.00
29461;BME280;16428;47.836;35.106;2023-02-28T01:48:27;101930.31;;;4.22;100.00
29461;BME280;16428;47.836;35.106;2023-02-28T01:50:59;101933.72;;;4.37;100.00
29461;BME280;16428;47.836;35.106;2023-02-28T01:53:45;101939.59;;;4.42;100.00
29461;BME280;16428;47.836;35.106;2023-02-28T01:56:20;101945.88;;;4.41;100.00
29461;BME280;16428;47.836;35.106;2023-02-28T01:58:51;101947.34;;;4.32;100.00
29461;BME280;16428;47.836;35.106;2023-02-28T02:01:23;101961.78;;;4.28;100.00
29461;BME280;16428;47.836;35.106;2023-02-28T02:03:58;101954.13;;;3.98;100.00
29461;BME280;16428;47.836;35.106;2023-02-28T02:06:37;101955.63;;;4.15;100.00
29461;BME280;16428;47.836;35.106;2023-02-28T02:09:05;101966.06;;;4.31;100.00
29461;BME280;16428;47.836;35.106;2023-02-28T02:11:34;101972.69;;;4.25;100.00
29461;BME280;16428;47.836;35.106;2023-02-28T02:14:33;101983.31;;;4.38;100.00
29461;BME280;16428;47.836;35.106;2023-02-28T02:17:40;101997.13;;;4.17;100.00
29461;BME280;16428;47.836;35.106;2023-02-28T02:23:42;102002.66;;;4.14;100.00
29461;BME280;16428;47.836;35.106;2023-02-28T02:34:48;102022.22;;;4.13;100.00
29461;BME280;16428;47.836;35.106;2023-02-28T02:45:25;102032.22;;;4.10;100.00
29461;BME280;16428;47.836;35.106;2023-02-28T02:47:58;102037.88;;;4.18;100.00
29461;BME280;16428;47.836;35.106;2023-02-28T02:50:33;102041.66;;;4.01;100.00
29461;BME280;16428;47.836;35.106;2023-02-28T02:53:04;102040.03;;;3.99;100.00
29461;BME280;16428;47.836;35.106;2023-02-28T02:55:38;102042.09;;;4.08;100.00
29461;BME280;16428;47.836;35.106;2023-02-28T02:58:22;102040.50;;;4.05;100.00
29461;BME280;16428;47.836;35.106;2023-02-28T03:00:54;102058.56;;;4.00;100.00
29461;BME280;16428;47.836;35.106;2023-02-28T03:03:25;102056.69;;;4.15;100.00
29461;BME280;16428;47.836;35.106;2023-02-28T03:05:59;102057.13;;;4.21;100.00
29461;BME280;16428;47.836;35.106;2023-02-28T03:08:28;102066.78;;;4.10;100.00
29461;BME280;16428;47.836;35.106;2023-02-28T03:11:00;102071.38;;;4.20;100.00
29461;BME280;16428;47.836;35.106;2023-02-28T03:24:56;102078.66;;;3.92;100.00
29461;BME280;16428;47.836;35.106;2023-02-28T03:27:32;102076.75;;;3.94;100.00
29461;BME280;16428;47.836;35.106;2023-02-28T03:30:08;102076.91;;;3.78;100.00
29461;BME280;16428;47.836;35.106;2023-02-28T03:32:42;102087.19;;;3.82;100.00
29461;BME280;16428;47.836;35.106;2023-02-28T03:35:25;102084.88;;;3.78;100.00
29461;BME280;16428;47.836;35.106;2023-02-28T03:38:08;102090.22;;;3.91;100.00
29461;BME280;16428;47.836;35.106;2023-02-28T03:40:47;102086.34;;;3.82;100.00
29461;BME280;16428;47.836;35.106;2023-02-28T03:43:21;102089.97;;;3.40;100.00
29461;BME280;16428;47.836;35.106;2023-02-28T03:45:51;102085.84;;;3.63;100.00
29461;BME280;16428;47.836;35.106;2023-02-28T03:48:32;102081.22;;;3.66;100.00
29461;BME280;16428;47.836;35.106;2023-02-28T03:51:07;102098.94;;;3.66;100.00
29461;BME280;16428;47.836;35.106;2023-02-28T03:53:42;102088.63;;;3.47;100.00
29461;BME280;16428;47.836;35.106;2023-02-28T03:56:31;102093.50;;;3.67;100.00
29461;BME280;16428;47.836;35.106;2023-02-28T03:59:06;102096.88;;;3.57;100.00
29461;BME280;16428;47.836;35.106;2023-02-28T04:01:45;102104.19;;;3.39;100.00
29461;BME280;16428;47.836;35.106;2023-02-28T04:04:15;102113.66;;;3.57;100.00
29461;BME280;16428;47.836;35.106;2023-02-28T04:06:50;102116.31;;;3.57;100.00
29461;BME280;16428;47.836;35.106;2023-02-28T04:09:18;102124.59;;;3.38;100.00
29461;BME280;16428;47.836;35.106;2023-02-28T04:11:52;102115.97;;;3.49;100.00
29461;BME280;16428;47.836;35.106;2023-02-28T04:14:19;102115.69;;;3.39;100.00
29461;BME280;16428;47.836;35.106;2023-02-28T04:16:47;102109.72;;;3.50;100.00
29461;BME280;16428;47.836;35.106;2023-02-28T04:19:14;102121.34;;;3.62;100.00
29461;BME280;16428;47.836;35.106;2023-02-28T04:21:50;102119.84;;;3.58;100.00
29461;BME280;16428;47.836;35.106;2023-02-28T04:24:23;102122.22;;;3.62;100.00
29461;BME280;16428;47.836;35.106;2023-02-28T04:26:54;102113.97;;;3.38;100.00
29461;BME280;16428;47.836;35.106;2023-02-28T04:29:27;102114.31;;;3.61;100.00
29461;BME280;16428;47.836;35.106;2023-02-28T04:31:56;102121.19;;;3.50;100.00
29461;BME280;16428;47.836;35.106;2023-02-28T04:34:26;102122.50;;;3.43;100.00
29461;BME280;16428;47.836;35.106;2023-02-28T04:36:55;102121.72;;;3.56;100.00
29461;BME280;16428;47.836;35.106;2023-02-28T04:39:40;102137.69;;;3.41;100.00
29461;BME280;16428;47.836;35.106;2023-02-28T04:42:08;102141.47;;;3.51;100.00
29461;BME280;16428;47.836;35.106;2023-02-28T04:44:36;102140.63;;;3.51;100.00
29461;BME280;16428;47.836;35.106;2023-02-28T04:47:04;102148.72;;;3.35;100.00
29461;BME280;16428;47.836;35.106;2023-02-28T04:49:32;102139.41;;;3.42;100.00
29461;BME280;16428;47.836;35.106;2023-02-28T04:52:01;102153.06;;;3.36;100.00
29461;BME280;16428;47.836;35.106;2023-02-28T04:54:30;102151.16;;;3.52;100.00
29461;BME280;16428;47.836;35.106;2023-02-28T04:56:57;102152.50;;;3.45;100.00
29461;BME280;16428;47.836;35.106;2023-02-28T04:59:25;102153.81;;;3.24;100.00
29461;BME280;16428;47.836;35.106;2023-02-28T05:01:53;102154.97;;;3.20;100.00
29461;BME280;16428;47.836;35.106;2023-02-28T05:04:20;102161.00;;;3.22;100.00
29461;BME280;16428;47.836;35.106;2023-02-28T05:06:49;102163.31;;;3.14;100.00
29461;BME280;16428;47.836;35.106;2023-02-28T05:09:17;102167.25;;;3.07;100.00
29461;BME280;16428;47.836;35.106;2023-02-28T05:11:46;102167.25;;;3.07;100.00
29461;BME280;16428;47.836;35.106;2023-02-28T05:14:14;102171.56;;;3.24;100.00
29461;BME280;16428;47.836;35.106;2023-02-28T05:16:42;102182.38;;;3.35;100.00
29461;BME280;16428;47.836;35.106;2023-02-28T05:19:09;102175.63;;;3.43;100.00
29461;BME280;16428;47.836;35.106;2023-02-28T05:21:41;102190.72;;;3.29;100.00
29461;BME280;16428;47.836;35.106;2023-02-28T05:24:19;102186.19;;;3.31;100.00
29461;BME280;16428;47.836;35.106;2023-02-28T05:26:52;102193.75;;;3.23;100.00
29461;BME280;16428;47.836;35.106;2023-02-28T05:29:21;102188.81;;;3.16;100.00
29461;BME280;16428;47.836;35.106;2023-02-28T05:31:48;102200.50;;;3.28;100.00
29461;BME280;16428;47.836;35.106;2023-02-28T05:34:16;102203.72;;;3.19;100.00
29461;BME280;16428;47.836;35.106;2023-02-28T05:36:44;102199.34;;;3.18;100.00
29461;BME280;16428;47.836;35.106;2023-02-28T05:39:11;102206.47;;;3.17;100.00
29461;BME280;16428;47.836;35.106;2023-02-28T05:41:42;102195.25;;;2.98;100.00
29461;BME280;16428;47.836;35.106;2023-02-28T05:44:10;102187.47;;;3.09;100.00
29461;BME280;16428;47.836;35.106;2023-02-28T05:46:43;102211.28;;;3.11;100.00
29461;BME280;16428;47.836;35.106;2023-02-28T05:49:11;102214.13;;;3.22;100.00
29461;BME280;16428;47.836;35.106;2023-02-28T05:51:38;102216.59;;;3.11;100.00
29461;BME280;16428;47.836;35.106;2023-02-28T05:54:09;102223.63;;;3.26;100.00
29461;BME280;16428;47.836;35.106;2023-02-28T05:56:40;102237.28;;;3.20;100.00
29461;BME280;16428;47.836;35.106;2023-02-28T05:59:07;102235.94;;;3.13;100.00
29461;BME280;16428;47.836;35.106;2023-02-28T06:01:40;102232.38;;;3.28;100.00
29461;BME280;16428;47.836;35.106;2023-02-28T06:04:09;102227.63;;;3.19;100.00
29461;BME280;16428;47.836;35.106;2023-02-28T06:06:55;102237.31;;;3.48;100.00
29461;BME280;16428;47.836;35.106;2023-02-28T06:09:31;102247.66;;;3.67;100.00
29461;BME280;16428;47.836;35.106;2023-02-28T06:12:00;102256.97;;;3.60;100.00
29461;BME280;16428;47.836;35.106;2023-02-28T06:14:30;102259.13;;;3.39;100.00
29461;BME280;16428;47.836;35.106;2023-02-28T06:17:03;102253.97;;;3.36;100.00
29461;BME280;16428;47.836;35.106;2023-02-28T06:19:32;102275.66;;;3.59;100.00
29461;BME280;16428;47.836;35.106;2023-02-28T06:21:59;102277.19;;;3.63;100.00
29461;BME280;16428;47.836;35.106;2023-02-28T06:24:27;102274.22;;;3.67;100.00
29461;BME280;16428;47.836;35.106;2023-02-28T06:26:58;102280.22;;;3.71;100.00
29461;BME280;16428;47.836;35.106;2023-02-28T06:29:35;102276.41;;;3.75;100.00
29461;BME280;16428;47.836;35.106;2023-02-28T06:32:03;102292.63;;;3.56;100.00
29461;BME280;16428;47.836;35.106;2023-02-28T06:34:33;102290.47;;;3.77;100.00
29461;BME280;16428;47.836;35.106;2023-02-28T06:37:03;102282.50;;;3.77;100.00
29461;BME280;16428;47.836;35.106;2023-02-28T06:39:38;102284.00;;;3.67;100.00
29461;BME280;16428;47.836;35.106;2023-02-28T06:42:07;102281.16;;;3.56;100.00
29461;BME280;16428;47.836;35.106;2023-02-28T06:44:35;102293.03;;;3.64;100.00
29461;BME280;16428;47.836;35.106;2023-02-28T06:47:04;102283.63;;;3.44;100.00
29461;BME280;16428;47.836;35.106;2023-02-28T06:49:33;102290.16;;;3.67;100.00
29461;BME280;16428;47.836;35.106;2023-02-28T06:52:02;102286.66;;;3.52;100.00
29461;BME280;16428;47.836;35.106;2023-02-28T06:54:29;102294.34;;;3.57;100.00
29461;BME280;16428;47.836;35.106;2023-02-28T06:56:58;102298.91;;;3.69;100.00
29461;BME280;16428;47.836;35.106;2023-02-28T06:59:25;102295.19;;;3.58;100.00
29461;BME280;16428;47.836;35.106;2023-02-28T07:01:53;102278.50;;;3.70;100.00
29461;BME280;16428;47.836;35.106;2023-02-28T07:04:22;102287.25;;;3.72;100.00
29461;BME280;16428;47.836;35.106;2023-02-28T07:06:55;102279.34;;;3.70;100.00
29461;BME280;16428;47.836;35.106;2023-02-28T07:09:24;102286.19;;;3.60;100.00
29461;BME280;16428;47.836;35.106;2023-02-28T07:11:57;102280.69;;;3.63;100.00
29461;BME280;16428;47.836;35.106;2023-02-28T07:14:24;102288.75;;;3.76;100.00
29461;BME280;16428;47.836;35.106;2023-02-28T07:16:52;102294.44;;;3.70;100.00
29461;BME280;16428;47.836;35.106;2023-02-28T07:19:21;102301.00;;;3.93;100.00
29461;BME280;16428;47.836;35.106;2023-02-28T07:21:49;102297.50;;;4.06;100.00
29461;BME280;16428;47.836;35.106;2023-02-28T07:24:16;102299.09;;;4.23;100.00
29461;BME280;16428;47.836;35.106;2023-02-28T07:26:45;102306.78;;;4.13;100.00
29461;BME280;16428;47.836;35.106;2023-02-28T07:29:12;102302.97;;;4.17;100.00
29461;BME280;16428;47.836;35.106;2023-02-28T07:31:39;102307.00;;;4.10;100.00
29461;BME280;16428;47.836;35.106;2023-02-28T07:34:07;102306.56;;;4.31;100.00
29461;BME280;16428;47.836;35.106;2023-02-28T07:36:34;102296.34;;;4.24;100.00
29461;BME280;16428;47.836;35.106;2023-02-28T07:39:02;102300.09;;;4.35;100.00
29461;BME280;16428;47.836;35.106;2023-02-28T07:41:31;102294.03;;;4.33;100.00
29461;BME280;16428;47.836;35.106;2023-02-28T07:44:01;102293.41;;;4.56;100.00
29461;BME280;16428;47.836;35.106;2023-02-28T07:46:30;102298.63;;;4.57;100.00
29461;BME280;16428;47.836;35.106;2023-02-28T07:49:04;102302.97;;;4.58;100.00
29461;BME280;16428;47.836;35.106;2023-02-28T07:51:33;102289.19;;;4.39;100.00
29461;BME280;16428;47.836;35.106;2023-02-28T07:54:03;102288.75;;;4.86;100.00
29461;BME280;16428;47.836;35.106;2023-02-28T07:56:31;102285.56;;;4.94;100.00
29461;BME280;16428;47.836;35.106;2023-02-28T07:58:59;102295.84;;;5.25;100.00
29461;BME280;16428;47.836;35.106;2023-02-28T08:01:27;102299.94;;;5.31;100.00
29461;BME280;16428;47.836;35.106;2023-02-28T08:03:55;102299.28;;;5.27;100.00
29461;BME280;16428;47.836;35.106;2023-02-28T08:06:25;102310.78;;;5.28;100.00
29461;BME280;16428;47.836;35.106;2023-02-28T08:08:57;102305.66;;;5.25;100.00
29461;BME280;16428;47.836;35.106;2023-02-28T08:11:25;102308.56;;;5.35;100.00
29461;BME280;16428;47.836;35.106;2023-02-28T08:13:54;102298.13;;;5.05;100.00
29461;BME280;16428;47.836;35.106;2023-02-28T08:16:24;102314.00;;;5.33;100.00
29461;BME280;16428;47.836;35.106;2023-02-28T08:18:52;102306.31;;;5.41;100.00
29461;BME280;16428;47.836;35.106;2023-02-28T08:21:20;102308.88;;;5.30;100.00
29461;BME280;16428;47.836;35.106;2023-02-28T08:23:50;102307.63;;;5.48;100.00
29461;BME280;16428;47.836;35.106;2023-02-28T08:26:18;102314.44;;;5.52;100.00
29461;BME280;16428;47.836;35.106;2023-02-28T08:28:46;102313.75;;;5.36;100.00
29461;BME280;16428;47.836;35.106;2023-02-28T08:31:15;102307.63;;;5.48;100.00
29461;BME280;16428;47.836;35.106;2023-02-28T08:33:48;102311.44;;;5.32;100.00
29461;BME280;16428;47.836;35.106;2023-02-28T08:36:19;102327.00;;;5.50;100.00
29461;BME280;16428;47.836;35.106;2023-02-28T08:38:47;102326.81;;;5.66;100.00
29461;BME280;16428;47.836;35.106;2023-02-28T08:41:15;102333.13;;;5.65;100.00
29461;BME280;16428;47.836;35.106;2023-02-28T08:43:42;102328.94;;;5.48;100.00
29461;BME280;16428;47.836;35.106;2023-02-28T08:46:13;102334.03;;;5.39;100.00
29461;BME280;16428;47.836;35.106;2023-02-28T08:48:41;102339.06;;;5.69;100.00
29461;BME280;16428;47.836;35.106;2023-02-28T08:51:11;102332.28;;;5.64;100.00
29461;BME280;16428;47.836;35.106;2023-02-28T08:53:40;102340.59;;;5.98;100.00
29461;BME280;16428;47.836;35.106;2023-02-28T08:56:11;102339.44;;;6.02;100.00
29461;BME280;16428;47.836;35.106;2023-02-28T08:58:40;102345.31;;;6.07;100.00
29461;BME280;16428;47.836;35.106;2023-02-28T09:01:12;102340.72;;;6.09;100.00
29461;BME280;16428;47.836;35.106;2023-02-28T09:03:44;102343.25;;;5.98;100.00
29461;BME280;16428;47.836;35.106;2023-02-28T09:06:14;102344.78;;;6.02;100.00
29461;BME280;16428;47.836;35.106;2023-02-28T09:08:42;102351.28;;;5.98;100.00
29461;BME280;16428;47.836;35.106;2023-02-28T09:11:10;102356.09;;;5.93;100.00
29461;BME280;16428;47.836;35.106;2023-02-28T09:13:42;102346.66;;;6.13;100.00
29461;BME280;16428;47.836;35.106;2023-02-28T09:16:13;102348.16;;;6.17;100.00
29461;BME280;16428;47.836;35.106;2023-02-28T09:18:41;102347.75;;;5.97;100.00
29461;BME280;16428;47.836;35.106;2023-02-28T09:21:16;102357.44;;;5.86;100.00
29461;BME280;16428;47.836;35.106;2023-02-28T09:23:45;102360.41;;;5.81;100.00
29461;BME280;16428;47.836;35.106;2023-02-28T09:26:24;102361.91;;;5.73;100.00
29461;BME280;16428;47.836;35.106;2023-02-28T09:28:53;102380.78;;;5.82;100.00
29461;BME280;16428;47.836;35.106;2023-02-28T09:31:24;102375.88;;;5.63;100.00
29461;BME280;16428;47.836;35.106;2023-02-28T09:33:54;102373.25;;;5.89;100.00
29461;BME280;16428;47.836;35.106;2023-02-28T09:36:23;102392.69;;;5.51;100.00
29461;BME280;16428;47.836;35.106;2023-02-28T09:39:07;102391.59;;;5.41;100.00
29461;BME280;16428;47.836;35.106;2023-02-28T09:41:39;102379.22;;;5.40;100.00
29461;BME280;16428;47.836;35.106;2023-02-28T09:44:40;102374.78;;;5.14;100.00
29461;BME280;16428;47.836;35.106;2023-02-28T09:49:45;102383.91;;;5.37;100.00
29461;BME280;16428;47.836;35.106;2023-02-28T09:52:18;102378.19;;;5.55;100.00
29461;BME280;16428;47.836;35.106;2023-02-28T09:54:46;102382.78;;;5.66;100.00
29461;BME280;16428;47.836;35.106;2023-02-28T09:57:32;102389.13;;;5.78;99.94
29461;BME280;16428;47.836;35.106;2023-02-28T10:00:16;102380.38;;;5.63;98.21
29461;BME280;16428;47.836;35.106;2023-02-28T10:05:32;102382.47;;;5.58;100.00
29461;BME280;16428;47.836;35.106;2023-02-28T10:08:06;102372.38;;;5.76;100.00
29461;BME280;16428;47.836;35.106;2023-02-28T10:10:57;102372.00;;;5.94;99.17
29461;BME280;16428;47.836;35.106;2023-02-28T10:16:29;102364.06;;;5.28;100.00
29461;BME280;16428;47.836;35.106;2023-02-28T10:19:04;102356.97;;;5.54;100.00
29461;BME280;16428;47.836;35.106;2023-02-28T10:21:46;102354.91;;;5.19;99.25
29461;BME280;16428;47.836;35.106;2023-02-28T10:24:28;102349.44;;;5.60;98.49
29461;BME280;16428;47.836;35.106;2023-02-28T10:27:21;102354.50;;;5.51;100.00
29461;BME280;16428;47.836;35.106;2023-02-28T10:29:55;102355.97;;;5.29;99.80
29461;BME280;16428;47.836;35.106;2023-02-28T10:32:26;102340.00;;;5.42;100.00
29461;BME280;16428;47.836;35.106;2023-02-28T10:37:38;102325.34;;;5.62;100.00
29461;BME280;16428;47.836;35.106;2023-02-28T10:40:07;102333.22;;;5.63;98.22
29461;BME280;16428;47.836;35.106;2023-02-28T10:43:04;102338.75;;;5.60;97.89
29461;BME280;16428;47.836;35.106;2023-02-28T10:45:34;102334.28;;;5.74;97.24
29461;BME280;16428;47.836;35.106;2023-02-28T10:56:03;102336.66;;;6.04;95.30
29461;BME280;16428;47.836;35.106;2023-02-28T11:01:42;102336.88;;;6.00;94.55
29461;BME280;16428;47.836;35.106;2023-02-28T11:04:33;102320.75;;;5.77;95.50
29461;BME280;16428;47.836;35.106;2023-02-28T11:07:19;102315.97;;;6.07;97.60
29461;BME280;16428;47.836;35.106;2023-02-28T11:09:52;102319.38;;;6.09;96.11
29461;BME280;16428;47.836;35.106;2023-02-28T11:12:31;102324.06;;;6.06;95.23
29461;BME280;16428;47.836;35.106;2023-02-28T11:17:57;102321.91;;;5.73;95.48
29461;BME280;16428;47.836;35.106;2023-02-28T11:20:28;102315.22;;;5.80;95.56
29461;BME280;16428;47.836;35.106;2023-02-28T11:22:58;102321.72;;;5.76;96.68
29461;BME280;16428;47.836;35.106;2023-02-28T11:25:38;102320.66;;;6.04;95.14
29461;BME280;16428;47.836;35.106;2023-02-28T11:28:33;102324.47;;;6.12;96.53
29461;BME280;16428;47.836;35.106;2023-02-28T11:31:06;102321.72;;;6.01;94.01
29461;BME280;16428;47.836;35.106;2023-02-28T11:36:22;102319.00;;;6.26;93.96
29461;BME280;16428;47.836;35.106;2023-02-28T11:39:08;102313.06;;;5.59;93.71
29461;BME280;16428;47.836;35.106;2023-02-28T11:44:58;102320.84;;;5.88;95.40
29461;BME280;16428;47.836;35.106;2023-02-28T11:47:38;102317.00;;;5.66;94.45
29461;BME280;16428;47.836;35.106;2023-02-28T11:53:19;102319.56;;;5.55;94.86
29461;BME280;16428;47.836;35.106;2023-02-28T11:56:18;102311.44;;;5.70;93.50
29461;BME280;16428;47.836;35.106;2023-02-28T12:07:01;102314.00;;;6.22;91.28
29461;BME280;16428;47.836;35.106;2023-02-28T12:26:46;102289.91;;;5.98;89.69
29461;BME280;16428;47.836;35.106;2023-02-28T12:32:36;102300.59;;;5.60;89.80
29461;BME280;16428;47.836;35.106;2023-02-28T12:35:12;102307.63;;;5.48;92.54
29461;BME280;16428;47.836;35.106;2023-02-28T12:37:45;102304.09;;;5.60;92.56
29461;BME280;16428;47.836;35.106;2023-02-28T12:40:27;102302.06;;;5.51;92.63
29461;BME280;16428;47.836;35.106;2023-02-28T12:43:03;102313.38;;;5.55;93.83
29461;BME280;16428;47.836;35.106;2023-02-28T12:48:24;102303.56;;;5.55;93.82
29461;BME280;16428;47.836;35.106;2023-02-28T12:50:53;102304.41;;;5.43;94.38
29461;BME280;16428;47.836;35.106;2023-02-28T12:58:54;102295.19;;;5.22;92.58
29461;BME280;16428;47.836;35.106;2023-02-28T13:01:34;102298.66;;;5.49;95.14
29461;BME280;16428;47.836;35.106;2023-02-28T13:09:52;102307.03;;;5.95;87.84
29461;BME280;16428;47.836;35.106;2023-02-28T13:12:25;102298.66;;;5.75;89.03
29461;BME280;16428;47.836;35.106;2023-02-28T13:15:21;102295.56;;;5.81;88.81
29461;BME280;16428;47.836;35.106;2023-02-28T13:17:53;102298.66;;;5.87;87.96
29461;BME280;16428;47.836;35.106;2023-02-28T13:20:46;102289.72;;;5.63;85.53
29461;BME280;16428;47.836;35.106;2023-02-28T13:29:04;102286.28;;;5.99;86.86
29461;BME280;16428;47.836;35.106;2023-02-28T13:34:35;102278.31;;;5.61;85.88
29461;BME280;16428;47.836;35.106;2023-02-28T13:47:38;102276.41;;;7.20;81.43
29461;BME280;16428;47.836;35.106;2023-02-28T13:50:21;102290.09;;;6.81;78.40
29461;BME280;16428;47.836;35.106;2023-02-28T13:55:57;102276.75;;;6.57;82.95
29461;BME280;16428;47.836;35.106;2023-02-28T14:04:29;102276.38;;;5.63;86.08
29461;BME280;16428;47.836;35.106;2023-02-28T14:07:02;102273.28;;;5.56;86.91
29461;BME280;16428;47.836;35.106;2023-02-28T14:09:33;102273.38;;;5.42;87.97
29461;BME280;16428;47.836;35.106;2023-02-28T14:15:38;102272.84;;;5.24;86.93
29461;BME280;16428;47.836;35.106;2023-02-28T14:18:31;102266.44;;;5.40;87.06
29461;BME280;16428;47.836;35.106;2023-02-28T14:21:29;102268.91;;;5.55;87.76
29461;BME280;16428;47.836;35.106;2023-02-28T14:35:28;102262.50;;;4.80;92.32
29461;BME280;16428;47.836;35.106;2023-02-28T14:38:05;102269.66;;;4.92;92.02
29461;BME280;16428;47.836;35.106;2023-02-28T14:40:35;102271.50;;;5.05;88.95
29461;BME280;16428;47.836;35.106;2023-02-28T14:43:20;102263.81;;;4.87;88.67
29461;BME280;16428;47.836;35.106;2023-02-28T14:45:59;102262.09;;;4.86;89.15
29461;BME280;16428;47.836;35.106;2023-02-28T14:48:28;102266.91;;;4.94;88.85
29461;BME280;16428;47.836;35.106;2023-02-28T14:51:00;102251.47;;;4.86;91.37
29461;BME280;16428;47.836;35.106;2023-02-28T14:53:34;102255.25;;;4.70;93.09
29461;BME280;16428;47.836;35.106;2023-02-28T14:56:02;102256.69;;;4.61;93.37
29461;BME280;16428;47.836;35.106;2023-02-28T14:58:33;102254.25;;;4.58;94.15
29461;BME280;16428;47.836;35.106;2023-02-28T15:01:02;102249.47;;;4.63;94.58
29461;BME280;16428;47.836;35.106;2023-02-28T15:03:32;102247.03;;;4.46;96.12
29461;BME280;16428;47.836;35.106;2023-02-28T15:06:03;102252.78;;;4.40;95.67
29461;BME280;16428;47.836;35.106;2023-02-28T15:08:32;102247.81;;;4.48;94.55
29461;BME280;16428;47.836;35.106;2023-02-28T15:11:06;102251.97;;;4.52;95.87
29461;BME280;16428;47.836;35.106;2023-02-28T15:13:42;102242.63;;;4.59;94.62
29461;BME280;16428;47.836;35.106;2023-02-28T15:16:17;102235.34;;;4.48;95.02
29461;BME280;16428;47.836;35.106;2023-02-28T15:22:01;102238.72;;;4.38;96.66
29461;BME280;16428;47.836;35.106;2023-02-28T15:27:07;102227.06;;;4.53;97.17
29461;BME280;16428;47.836;35.106;2023-02-28T15:29:47;102240.25;;;4.42;97.31
29461;BME280;16428;47.836;35.106;2023-02-28T15:32:31;102242.72;;;4.31;95.61
29461;BME280;16428;47.836;35.106;2023-02-28T15:38:23;102242.53;;;4.60;94.09
29461;BME280;16428;47.836;35.106;2023-02-28T15:40:56;102245.44;;;4.70;94.25
29461;BME280;16428;47.836;35.106;2023-02-28T15:43:33;102249.22;;;4.53;94.96
29461;BME280;16428;47.836;35.106;2023-02-28T15:48:43;102249.94;;;4.29;94.95
29461;BME280;16428;47.836;35.106;2023-02-28T15:53:47;102256.66;;;4.07;96.88
29461;BME280;16428;47.836;35.106;2023-02-28T15:56:33;102255.53;;;3.97;97.25